createdAt,value
2018-07-13T00:01:58.440Z,101615.91
2018-07-13T00:05:02.681Z,101606.89
2018-07-13T00:08:06.961Z,101609.55
2018-07-13T00:11:11.239Z,101613.34
2018-07-13T00:14:19.564Z,101612.38
2018-07-13T00:17:23.834Z,101608.50
2018-07-13T00:20:28.057Z,101615.91
2018-07-13T00:23:32.296Z,101623.53
2018-07-13T00:26:36.940Z,101629.39
2018-07-13T00:29:41.198Z,101622.34
2018-07-13T00:32:45.472Z,101624.06
2018-07-13T00:35:49.713Z,101628.99
2018-07-13T00:38:53.970Z,101629.07
2018-07-13T00:41:57.981Z,101616.13
2018-07-13T00:45:02.276Z,101622.98
2018-07-13T00:48:06.512Z,101627.77
2018-07-13T00:51:10.817Z,101631.56
2018-07-13T00:54:15.028Z,101628.70
2018-07-13T00:57:19.301Z,101629.07
2018-07-13T01:00:30.827Z,101620.60
2018-07-13T01:03:35.077Z,101622.38
2018-07-13T01:06:39.352Z,101630.32
2018-07-13T01:09:43.589Z,101620.48
2018-07-13T01:12:47.942Z,101623.55
2018-07-13T01:15:52.183Z,101618.87
2018-07-13T01:18:56.486Z,101621.41
2018-07-13T01:22:00.753Z,101618.19
2018-07-13T01:25:05.021Z,101614.91
2018-07-13T01:28:09.088Z,101621.33
2018-07-13T01:31:13.286Z,101619.86
2018-07-13T01:34:17.496Z,101615.02
2018-07-13T01:37:21.741Z,101607.03
2018-07-13T01:40:25.997Z,101608.47
2018-07-13T01:43:30.298Z,101611.86
2018-07-13T01:46:34.568Z,101610.77
2018-07-13T01:49:38.793Z,101610.23
2018-07-13T01:52:43.098Z,101614.05
2018-07-13T01:55:47.343Z,101617.67
2018-07-13T01:58:51.836Z,101621.02
2018-07-13T02:01:56.088Z,101622.95
2018-07-13T02:05:00.332Z,101623.52
2018-07-13T02:08:04.625Z,101616.13
2018-07-13T02:11:08.872Z,101620.73
2018-07-13T02:14:13.154Z,101621.22
2018-07-13T02:17:17.463Z,101628.32
2018-07-13T02:20:21.754Z,101621.47
2018-07-13T02:23:26.068Z,101626.39
2018-07-13T02:26:30.385Z,101619.53
2018-07-13T02:29:34.644Z,101622.88
2018-07-13T02:32:38.881Z,101615.38
2018-07-13T02:35:43.117Z,101624.94
2018-07-13T02:38:47.370Z,101614.20
2018-07-13T02:41:51.612Z,101618.00
2018-07-13T02:44:55.847Z,101609.87
2018-07-13T02:48:00.142Z,101609.47
2018-07-13T02:51:04.411Z,101606.20
2018-07-13T02:54:08.660Z,101608.05
2018-07-13T02:57:12.893Z,101612.05
2018-07-13T03:00:17.169Z,101613.06
2018-07-13T03:03:21.425Z,101620.41
2018-07-13T03:06:25.707Z,101614.03
2018-07-13T03:09:29.940Z,101620.00
2018-07-13T03:12:34.181Z,101616.37
2018-07-13T03:15:38.518Z,101613.83
2018-07-13T03:18:42.758Z,101615.96
2018-07-13T03:21:46.977Z,101612.86
2018-07-13T03:24:51.235Z,101616.32
2018-07-13T03:27:55.481Z,101617.64
2018-07-13T03:30:59.709Z,101617.41
2018-07-13T03:34:03.978Z,101617.09
2018-07-13T03:37:08.237Z,101626.63
2018-07-13T03:40:12.485Z,101627.06
2018-07-13T03:43:16.688Z,101626.51
2018-07-13T03:46:20.944Z,101630.74
2018-07-13T03:49:25.172Z,101629.66
2018-07-13T03:52:29.468Z,101634.02
2018-07-13T03:55:33.728Z,101632.16
2018-07-13T03:58:37.969Z,101628.17
2018-07-13T04:01:42.186Z,101628.78
2018-07-13T04:04:46.488Z,101638.19
2018-07-13T04:07:50.938Z,101637.02
2018-07-13T04:10:55.194Z,101631.73
2018-07-13T04:13:59.438Z,101632.34
2018-07-13T04:17:03.717Z,101628.06
2018-07-13T04:20:07.979Z,101631.38
2018-07-13T04:23:12.246Z,101633.11
2018-07-13T04:26:16.487Z,101633.95
2018-07-13T04:29:21.203Z,101640.09
2018-07-13T04:32:25.444Z,101645.09
2018-07-13T04:35:29.683Z,101646.27
2018-07-13T04:38:33.931Z,101651.27
2018-07-13T04:41:38.224Z,101650.81
2018-07-13T04:44:42.453Z,101653.44
2018-07-13T04:47:46.490Z,101652.14
2018-07-13T04:50:50.748Z,101660.13
2018-07-13T04:53:55.091Z,101650.67
2018-07-13T04:56:59.365Z,101648.57
2018-07-13T05:00:03.634Z,101648.08
2018-07-13T05:03:07.884Z,101654.10
2018-07-13T05:06:12.118Z,101659.42
2018-07-13T05:09:16.486Z,101656.44
2018-07-13T05:12:20.705Z,101656.55
2018-07-13T05:15:24.927Z,101654.68
2018-07-13T05:18:29.217Z,101662.75
2018-07-13T05:21:33.501Z,101662.33
2018-07-13T05:24:37.733Z,101658.56
2018-07-13T05:27:42.135Z,101660.75
2018-07-13T05:30:46.540Z,101666.63
2018-07-13T05:33:50.857Z,101667.05
2018-07-13T05:36:55.085Z,101658.39
2018-07-13T05:39:59.341Z,101658.25
2018-07-13T05:43:03.661Z,101663.49
2018-07-13T05:46:07.933Z,101661.94
2018-07-13T05:49:12.213Z,101672.53
2018-07-13T05:52:16.455Z,101674.60
2018-07-13T05:55:20.765Z,101669.73
2018-07-13T05:58:25.063Z,101671.48
2018-07-13T06:01:29.304Z,101673.98
2018-07-13T06:04:33.541Z,101683.20
2018-07-13T06:07:37.893Z,101676.52
2018-07-13T06:10:42.150Z,101672.70
2018-07-13T06:13:46.419Z,101680.95
2018-07-13T06:16:50.652Z,101681.64
2018-07-13T06:19:54.895Z,101681.56
2018-07-13T06:22:59.123Z,101677.75
2018-07-13T06:26:03.381Z,101686.93
2018-07-13T06:29:07.665Z,101688.76
2018-07-13T06:32:11.880Z,101694.40
2018-07-13T06:35:16.115Z,101688.39
2018-07-13T06:38:20.343Z,101693.12
2018-07-13T06:41:24.569Z,101692.91
2018-07-13T06:44:28.837Z,101695.46
2018-07-13T06:47:33.061Z,101688.58
2018-07-13T06:50:37.856Z,101686.27
2018-07-13T06:53:42.033Z,101687.83
2018-07-13T06:56:46.354Z,101691.02
2018-07-13T06:59:50.517Z,101682.63
2018-07-13T07:02:54.779Z,101684.65
2018-07-13T07:06:03.245Z,101688.59
2018-07-13T07:09:07.547Z,101688.67
2018-07-13T07:12:54.521Z,101688.27
2018-07-13T07:15:59.225Z,101696.19
2018-07-13T07:19:03.449Z,101697.59
2018-07-13T07:22:07.857Z,101693.57
2018-07-13T07:25:12.074Z,101696.77
2018-07-13T07:28:16.344Z,101692.23
2018-07-13T07:31:20.603Z,101690.59
2018-07-13T07:34:24.854Z,101681.30
2018-07-13T07:37:29.082Z,101686.87
2018-07-13T07:40:33.402Z,101693.30
2018-07-13T07:43:37.660Z,101699.19
2018-07-13T07:46:41.909Z,101699.50
2018-07-13T07:49:46.178Z,101700.42
2018-07-13T07:52:50.428Z,101691.95
2018-07-13T07:55:54.663Z,101691.95
2018-07-13T07:58:58.896Z,101690.36
2018-07-13T08:02:03.131Z,101695.95
2018-07-13T08:05:07.440Z,101698.80
2018-07-13T08:08:11.708Z,101686.35
2018-07-13T08:11:16.314Z,101684.48
2018-07-13T08:14:20.712Z,101689.78
2018-07-13T08:17:25.093Z,101685.36
2018-07-13T08:20:35.149Z,101683.17
2018-07-13T08:23:39.891Z,101685.45
2018-07-13T08:26:44.695Z,101677.39
2018-07-13T08:29:49.541Z,101680.18
2018-07-13T08:32:53.802Z,101685.14
2018-07-13T08:35:58.044Z,101687.90
2018-07-13T08:39:02.300Z,101690.38
2018-07-13T08:42:06.513Z,101692.02
2018-07-13T08:45:10.758Z,101698.95
2018-07-13T08:48:14.988Z,101697.52
2018-07-13T08:51:19.298Z,101697.80
2018-07-13T08:54:23.498Z,101693.39
2018-07-13T08:57:27.716Z,101689.49
2018-07-13T09:00:32.017Z,101687.48
2018-07-13T09:03:36.256Z,101690.44
2018-07-13T09:06:40.521Z,101689.88
2018-07-13T09:09:44.768Z,101687.33
2018-07-13T09:12:49.038Z,101688.09
2018-07-13T09:15:53.241Z,101690.81
2018-07-13T09:18:57.681Z,101695.31
2018-07-13T09:22:02.055Z,101696.47
2018-07-13T09:25:06.617Z,101692.30
2018-07-13T09:28:10.865Z,101691.39
2018-07-13T09:31:15.105Z,101698.22
2018-07-13T09:34:19.317Z,101703.20
2018-07-13T09:37:23.581Z,101705.67
2018-07-13T09:40:27.820Z,101711.20
2018-07-13T09:43:32.068Z,101709.52
2018-07-13T09:46:36.375Z,101707.13
2018-07-13T09:49:40.603Z,101712.09
2018-07-13T09:52:44.837Z,101716.49
2018-07-13T09:55:49.068Z,101713.92
2018-07-13T09:58:53.330Z,101719.16
2018-07-13T10:01:57.580Z,101721.92
2018-07-13T10:05:01.887Z,101716.31
2018-07-13T10:08:06.114Z,101719.60
2018-07-13T10:11:10.369Z,101720.19
2018-07-13T10:14:14.576Z,101720.15
2018-07-13T10:17:18.805Z,101721.50
2018-07-13T10:20:23.044Z,101720.56
2018-07-13T10:23:27.774Z,101724.58
2018-07-13T10:26:36.234Z,101723.18
2018-07-13T10:29:47.181Z,101725.97
2018-07-13T10:32:51.490Z,101732.91
2018-07-13T10:35:55.776Z,101732.10
2018-07-13T10:39:00.066Z,101733.42
2018-07-13T10:42:04.316Z,101733.00
2018-07-13T10:45:08.598Z,101726.64
2018-07-13T10:48:12.846Z,101727.06
2018-07-13T10:51:16.854Z,101730.12
2018-07-13T10:54:21.425Z,101729.76
2018-07-13T10:57:25.629Z,101732.79
2018-07-13T11:00:29.844Z,101730.85
2018-07-13T11:03:34.056Z,101730.38
2018-07-13T11:06:38.276Z,101730.05
2018-07-13T11:09:42.476Z,101736.08
2018-07-13T11:12:46.683Z,101732.53
2018-07-13T11:15:50.935Z,101731.98
2018-07-13T11:18:55.569Z,101734.80
2018-07-13T11:21:59.809Z,101737.59
2018-07-13T11:25:04.037Z,101735.10
2018-07-13T11:28:08.260Z,101742.56
2018-07-13T11:31:12.460Z,101744.78
2018-07-13T11:34:16.686Z,101746.33
2018-07-13T11:37:21.045Z,101748.02
2018-07-13T11:40:25.245Z,101756.41
2018-07-13T11:43:29.502Z,101754.80
2018-07-13T11:46:33.701Z,101759.30
2018-07-13T11:49:37.926Z,101766.46
2018-07-13T11:52:42.166Z,101760.61
2018-07-13T11:55:46.388Z,101756.80
2018-07-13T11:58:50.596Z,101756.55
2018-07-13T12:01:54.846Z,101753.31
2018-07-13T12:04:59.040Z,101755.02
2018-07-13T12:08:03.265Z,101763.10
2018-07-13T12:11:07.477Z,101762.00
2018-07-13T12:14:11.757Z,101770.41
2018-07-13T12:17:16.061Z,101772.19
2018-07-13T12:20:20.275Z,101775.81
2018-07-13T12:23:24.533Z,101777.23
2018-07-13T12:26:28.775Z,101775.84
2018-07-13T12:29:32.981Z,101762.50
2018-07-13T12:32:37.237Z,101776.89
2018-07-13T12:35:41.485Z,101769.70
2018-07-13T12:38:45.712Z,101770.00
2018-07-13T12:41:50.105Z,101768.59
2018-07-13T12:44:54.363Z,101762.44
2018-07-13T12:47:58.592Z,101765.52
2018-07-13T12:51:02.800Z,101761.12
2018-07-13T12:54:07.093Z,101762.23
2018-07-13T12:57:11.280Z,101773.02
2018-07-13T13:00:15.469Z,101768.92
2018-07-13T13:03:19.706Z,101772.56
2018-07-13T13:06:23.958Z,101765.86
2018-07-13T13:09:28.201Z,101767.19
2018-07-13T13:12:32.415Z,101764.17
2018-07-13T13:15:36.405Z,101776.13
2018-07-13T13:18:40.628Z,101775.84
2018-07-13T13:21:44.938Z,101769.22
2018-07-13T13:24:49.169Z,101773.38
2018-07-13T13:27:54.272Z,101768.91
2018-07-13T13:30:58.477Z,101776.99
2018-07-13T13:34:02.693Z,101775.38
2018-07-13T13:37:06.908Z,101775.33
2018-07-13T13:40:11.130Z,101771.16
2018-07-13T13:43:15.366Z,101768.40
2018-07-13T13:46:19.593Z,101777.56
2018-07-13T13:49:23.850Z,101775.10
2018-07-13T13:52:28.041Z,101772.05
2018-07-13T13:55:32.306Z,101770.92
2018-07-13T13:58:36.581Z,101770.91
2018-07-13T14:01:40.777Z,101770.89
2018-07-13T14:04:45.014Z,101768.64
2018-07-13T14:07:49.330Z,101773.38
2018-07-13T14:10:53.717Z,101770.06
2018-07-13T14:13:57.999Z,101771.97
2018-07-13T14:17:02.230Z,101771.12
2018-07-13T14:20:06.460Z,101771.39
2018-07-13T14:23:10.698Z,101773.86
2018-07-13T14:26:14.911Z,101779.98
2018-07-13T14:29:19.113Z,101772.23
2018-07-13T14:32:23.301Z,101771.66
2018-07-13T14:35:27.525Z,101777.73
2018-07-13T14:38:31.770Z,101776.55
2018-07-13T14:41:36.040Z,101774.85
2018-07-13T14:44:40.233Z,101778.18
2018-07-13T14:47:44.439Z,101780.98
2018-07-13T14:50:48.678Z,101775.94
2018-07-13T14:53:52.924Z,101784.47
2018-07-13T14:56:57.137Z,101788.99
2018-07-13T15:00:01.120Z,101784.62
2018-07-13T15:03:05.349Z,101778.77
2018-07-13T15:06:09.641Z,101781.46
2018-07-13T15:09:13.920Z,101779.69
2018-07-13T15:12:18.121Z,101781.05
2018-07-13T15:15:22.341Z,101781.28
2018-07-13T15:18:26.550Z,101789.37
2018-07-13T15:21:30.809Z,101794.95
2018-07-13T15:24:35.035Z,101791.87
2018-07-13T15:27:39.274Z,101789.92
2018-07-13T15:30:43.511Z,101795.58
2018-07-13T15:33:47.769Z,101792.25
2018-07-13T15:36:52.013Z,101794.83
2018-07-13T15:39:56.297Z,101791.50
2018-07-13T15:43:00.614Z,101795.93
2018-07-13T15:46:04.894Z,101795.46
2018-07-13T15:49:09.094Z,101795.77
2018-07-13T15:52:13.713Z,101801.86
2018-07-13T15:55:17.925Z,101808.80
2018-07-13T15:58:22.205Z,101810.48
2018-07-13T16:01:26.423Z,101805.03
2018-07-13T16:04:30.714Z,101795.05
2018-07-13T16:07:35.813Z,101798.12
2018-07-13T16:10:40.088Z,101795.63
2018-07-13T16:13:44.325Z,101798.11
2018-07-13T16:16:48.570Z,101787.88
2018-07-13T16:19:52.793Z,101787.59
2018-07-13T16:22:57.066Z,101790.34
2018-07-13T16:26:01.241Z,101791.66
2018-07-13T16:29:05.481Z,101791.84
2018-07-13T16:32:09.709Z,101789.56
2018-07-13T16:35:13.937Z,101794.70
2018-07-13T16:38:18.156Z,101787.33
2018-07-13T16:41:22.421Z,101791.03
2018-07-13T16:44:26.636Z,101788.91
2018-07-13T16:47:30.873Z,101788.45
2018-07-13T16:50:35.139Z,101788.05
2018-07-13T16:53:39.326Z,101788.53
2018-07-13T16:56:43.670Z,101790.90
2018-07-13T16:59:47.896Z,101797.92
2018-07-13T17:02:51.882Z,101799.41
2018-07-13T17:05:56.101Z,101795.73
2018-07-13T17:09:00.413Z,101799.43
2018-07-13T17:12:04.541Z,101803.97
2018-07-13T17:15:08.848Z,101790.64
2018-07-13T17:18:13.085Z,101792.02
2018-07-13T17:21:17.311Z,101799.42
2018-07-13T17:24:21.506Z,101807.59
2018-07-13T17:27:25.731Z,101806.59
2018-07-13T17:30:29.952Z,101814.44
2018-07-13T17:33:35.197Z,101811.08
2018-07-13T17:36:39.449Z,101813.21
2018-07-13T17:39:43.656Z,101808.88
2018-07-13T17:42:47.976Z,101812.17
2018-07-13T17:45:52.093Z,101808.80
2018-07-13T17:48:56.302Z,101813.09
2018-07-13T17:52:00.529Z,101809.53
2018-07-13T17:55:04.756Z,101800.65
2018-07-13T17:58:09.001Z,101800.69
2018-07-13T18:01:13.204Z,101801.09
2018-07-13T18:04:17.421Z,101799.59
2018-07-13T18:07:21.614Z,101798.66
2018-07-13T18:10:26.848Z,101797.94
2018-07-13T18:13:31.074Z,101798.12
2018-07-13T18:16:35.270Z,101800.25
2018-07-13T18:19:39.460Z,101798.28
2018-07-13T18:22:43.677Z,101805.66
2018-07-13T18:25:47.868Z,101801.78
2018-07-13T18:28:52.109Z,101805.63
2018-07-13T18:31:56.350Z,101801.78
2018-07-13T18:35:00.561Z,101818.25
2018-07-13T18:38:04.787Z,101819.03
2018-07-13T18:41:09.017Z,101811.42
2018-07-13T18:44:13.267Z,101813.19
2018-07-13T18:47:17.431Z,101825.14
2018-07-13T18:50:21.628Z,101824.01
2018-07-13T18:53:25.852Z,101837.13
2018-07-13T18:56:30.057Z,101836.17
2018-07-13T18:59:34.261Z,101831.37
2018-07-13T19:02:38.478Z,101828.61
2018-07-13T19:05:42.714Z,101828.45
2018-07-13T19:08:46.901Z,101827.05
2018-07-13T19:11:51.138Z,101830.48
2018-07-13T19:14:55.349Z,101825.64
2018-07-13T19:17:59.532Z,101832.99
2018-07-13T19:21:03.776Z,101832.59
2018-07-13T19:24:07.997Z,101834.13
2018-07-13T19:27:12.194Z,101830.80
2018-07-13T19:30:16.445Z,101833.23
2018-07-13T19:33:20.680Z,101836.22
2018-07-13T19:36:24.941Z,101826.84
2018-07-13T19:39:29.198Z,101835.56
2018-07-13T19:42:33.394Z,101844.04
2018-07-13T19:45:37.617Z,101852.15
2018-07-13T19:48:42.814Z,101851.02
2018-07-13T19:51:47.029Z,101844.88
2018-07-13T19:54:51.264Z,101852.82
2018-07-13T19:57:55.465Z,101850.60
2018-07-13T20:00:59.648Z,101852.11
2018-07-13T20:04:03.863Z,101853.87
2018-07-13T20:07:08.121Z,101862.78
2018-07-13T20:10:12.346Z,101858.81
2018-07-13T20:13:16.557Z,101865.03
2018-07-13T20:16:20.781Z,101859.97
2018-07-13T20:19:25.016Z,101867.06
2018-07-13T20:22:29.237Z,101857.98
2018-07-13T20:25:33.441Z,101856.70
2018-07-13T20:28:37.639Z,101859.78
2018-07-13T20:31:41.869Z,101862.93
2018-07-13T20:34:46.095Z,101864.30
2018-07-13T20:37:50.298Z,101861.80
2018-07-13T20:40:54.570Z,101873.44
2018-07-13T20:43:58.792Z,101868.19
2018-07-13T20:47:03.859Z,101883.88
2018-07-13T20:50:08.077Z,101880.24
2018-07-13T20:53:12.316Z,101882.98
2018-07-13T20:56:16.525Z,101881.14
2018-07-13T20:59:20.753Z,101881.19
2018-07-13T21:02:24.930Z,101882.03
2018-07-13T21:05:29.158Z,101883.17
2018-07-13T21:08:33.373Z,101878.05
2018-07-13T21:11:37.589Z,101879.34
2018-07-13T21:14:41.776Z,101883.78
2018-07-13T21:17:45.988Z,101892.96
2018-07-13T21:20:50.268Z,101887.53
2018-07-13T21:23:54.412Z,101893.25
2018-07-13T21:26:58.642Z,101888.59
2018-07-13T21:30:03.870Z,101893.89
2018-07-13T21:33:07.884Z,101886.31
2018-07-13T21:36:12.062Z,101890.34
2018-07-13T21:39:16.268Z,101883.19
2018-07-13T21:42:20.452Z,101884.70
2018-07-13T21:45:24.738Z,101890.42
2018-07-13T21:48:28.888Z,101889.72
2018-07-13T21:51:33.114Z,101895.20
2018-07-13T21:54:37.322Z,101893.52
2018-07-13T21:57:41.542Z,101896.05
2018-07-13T22:00:45.827Z,101897.10
2018-07-13T22:03:50.037Z,101896.96
2018-07-13T22:06:54.246Z,101902.10
2018-07-13T22:09:58.448Z,101898.31
2018-07-13T22:13:02.642Z,101894.48
2018-07-13T22:16:06.993Z,101889.91
2018-07-13T22:19:11.136Z,101888.30
2018-07-13T22:22:15.382Z,101892.97
2018-07-13T22:25:19.585Z,101887.11
2018-07-13T22:28:23.604Z,101886.55
2018-07-13T22:31:27.817Z,101887.25
2018-07-13T22:34:32.029Z,101886.69
2018-07-13T22:37:36.232Z,101886.34
2018-07-13T22:40:40.435Z,101880.16
2018-07-13T22:43:44.620Z,101877.75
2018-07-13T22:46:48.833Z,101876.61
2018-07-13T22:49:53.028Z,101878.27
2018-07-13T22:52:57.247Z,101878.03
2018-07-13T22:56:01.445Z,101874.68
2018-07-13T22:59:05.672Z,101876.00
2018-07-13T23:02:09.877Z,101871.59
2018-07-13T23:05:14.086Z,101870.33
2018-07-13T23:08:18.325Z,101872.98
2018-07-13T23:11:22.521Z,101868.96
2018-07-13T23:14:26.774Z,101879.64
2018-07-13T23:17:30.998Z,101872.41
2018-07-13T23:20:35.796Z,101874.02
2018-07-13T23:23:39.969Z,101875.09
2018-07-13T23:26:44.180Z,101874.02
2018-07-13T23:29:48.382Z,101872.73
2018-07-13T23:32:52.600Z,101874.63
2018-07-13T23:35:56.785Z,101876.84
2018-07-13T23:39:00.994Z,101873.08
2018-07-13T23:42:05.191Z,101871.70
2018-07-13T23:45:09.398Z,101872.17
2018-07-13T23:48:13.571Z,101872.49
2018-07-13T23:51:17.813Z,101882.67
2018-07-13T23:54:22.092Z,101880.02
2018-07-13T23:57:26.303Z,101875.81
